createdAt,value
2023-04-26T00:01:05.789Z,6.94
2023-04-26T00:03:00.748Z,6.91
2023-04-26T00:04:59.079Z,6.87
2023-04-26T00:06:52.293Z,6.85
2023-04-26T00:08:45.139Z,6.82
2023-04-26T00:10:38.184Z,6.80
2023-04-26T00:12:31.138Z,6.77
2023-04-26T00:14:24.430Z,6.73
2023-04-26T00:16:18.572Z,6.70
2023-04-26T00:18:12.835Z,6.65
2023-04-26T00:20:08.533Z,6.61
2023-04-26T00:22:01.410Z,6.58
2023-04-26T00:23:55.015Z,6.56
2023-04-26T00:25:47.919Z,6.53
2023-04-26T00:27:40.765Z,6.49
2023-04-26T00:29:34.531Z,6.44
2023-04-26T00:31:27.634Z,6.39
2023-04-26T00:33:20.843Z,6.34
2023-04-26T00:35:13.994Z,6.29
2023-04-26T00:37:07.365Z,6.26
2023-04-26T00:39:00.303Z,6.23
2023-04-26T00:40:53.863Z,6.20
2023-04-26T00:42:46.709Z,6.17
2023-04-26T00:44:40.610Z,6.15
2023-04-26T00:46:33.625Z,6.11
2023-04-26T00:48:26.471Z,6.07
2023-04-26T00:50:19.726Z,6.03
2023-04-26T00:52:13.023Z,5.99
2023-04-26T00:54:06.957Z,5.95
2023-04-26T00:56:00.192Z,5.93
2023-04-26T00:57:53.974Z,5.91
2023-04-26T00:59:47.024Z,5.89
2023-04-26T01:01:42.475Z,5.87
2023-04-26T01:03:35.733Z,5.85
2023-04-26T01:05:28.839Z,5.85
2023-04-26T01:07:21.686Z,5.84
2023-04-26T01:09:16.172Z,5.84
2023-04-26T01:11:09.830Z,5.83
2023-04-26T01:13:03.911Z,5.82
2023-04-26T01:14:57.474Z,5.79
2023-04-26T01:16:50.928Z,5.77
2023-04-26T01:18:43.702Z,5.76
2023-04-26T01:20:36.537Z,5.73
2023-04-26T01:22:33.157Z,5.71
2023-04-26T01:24:26.012Z,5.68
2023-04-26T01:26:19.039Z,5.64
2023-04-26T01:28:13.231Z,5.62
2023-04-26T01:30:07.303Z,5.60
2023-04-26T01:32:00.113Z,5.59
2023-04-26T01:33:54.535Z,5.59
2023-04-26T01:35:47.486Z,5.56
2023-04-26T01:37:40.533Z,5.55
2023-04-26T01:39:34.588Z,5.53
2023-04-26T01:41:27.550Z,5.50
2023-04-26T01:43:21.423Z,5.47
2023-04-26T01:45:14.264Z,5.45
2023-04-26T01:47:26.810Z,5.40
2023-04-26T01:49:19.823Z,5.39
2023-04-26T01:51:14.114Z,5.39
2023-04-26T01:53:07.250Z,5.35
2023-04-26T01:55:01.881Z,5.31
2023-04-26T01:56:54.788Z,5.29
2023-04-26T01:58:47.748Z,5.28
2023-04-26T02:00:40.683Z,5.26
2023-04-26T02:02:33.596Z,5.25
2023-04-26T02:04:28.236Z,5.22
2023-04-26T02:06:21.935Z,5.19
2023-04-26T02:08:15.550Z,5.16
2023-04-26T02:10:09.228Z,5.14
2023-04-26T02:12:02.988Z,5.12
2023-04-26T02:13:55.928Z,5.09
2023-04-26T02:15:50.136Z,5.06
2023-04-26T02:17:43.072Z,5.05
2023-04-26T02:19:36.108Z,5.03
2023-04-26T02:21:30.803Z,5.00
2023-04-26T02:23:24.458Z,4.99
2023-04-26T02:25:17.309Z,4.96
2023-04-26T02:27:10.152Z,4.94
2023-04-26T02:29:03.001Z,4.91
2023-04-26T02:30:56.872Z,4.89
2023-04-26T02:32:50.400Z,4.88
2023-04-26T02:34:44.922Z,4.87
2023-04-26T02:36:37.802Z,4.87
2023-04-26T02:38:31.016Z,4.83
2023-04-26T02:40:23.862Z,4.82
2023-04-26T02:42:17.528Z,4.80
2023-04-26T02:44:10.474Z,4.79
2023-04-26T02:46:03.422Z,4.76
2023-04-26T02:47:57.249Z,4.72
2023-04-26T02:49:51.400Z,4.69
2023-04-26T02:51:44.421Z,4.67
2023-04-26T02:53:37.362Z,4.65
2023-04-26T02:55:30.314Z,4.64
2023-04-26T02:57:23.469Z,4.63
2023-04-26T02:59:16.458Z,4.61
2023-04-26T03:01:09.380Z,4.59
2023-04-26T03:03:03.071Z,4.57
2023-04-26T03:04:56.184Z,4.53
2023-04-26T03:06:49.024Z,4.52
2023-04-26T03:08:41.874Z,4.49
2023-04-26T03:10:34.717Z,4.49
2023-04-26T03:12:27.661Z,4.48
2023-04-26T03:14:20.510Z,4.43
2023-04-26T03:16:13.400Z,4.42
2023-04-26T03:18:06.370Z,4.39
2023-04-26T03:20:00.598Z,4.38
2023-04-26T03:21:56.094Z,4.36
2023-04-26T03:23:49.150Z,4.34
2023-04-26T03:25:42.170Z,4.34
2023-04-26T03:27:35.245Z,4.32
2023-04-26T03:29:28.197Z,4.29
2023-04-26T03:31:21.936Z,4.28
2023-04-26T03:33:14.976Z,4.25
2023-04-26T03:35:08.890Z,4.24
2023-04-26T03:37:03.405Z,4.23
2023-04-26T03:38:56.722Z,4.22
2023-04-26T03:40:50.288Z,4.20
2023-04-26T03:42:43.128Z,4.20
2023-04-26T03:44:35.985Z,4.19
2023-04-26T03:46:29.159Z,4.18
2023-04-26T03:48:22.801Z,4.17
2023-04-26T03:50:15.693Z,4.16
2023-04-26T03:52:08.591Z,4.14
2023-04-26T03:54:01.750Z,4.12
2023-04-26T03:55:54.892Z,4.10
2023-04-26T03:57:48.358Z,4.10
2023-04-26T03:59:41.510Z,4.10
2023-04-26T04:01:34.351Z,4.10
2023-04-26T04:03:27.860Z,4.11
2023-04-26T04:05:21.588Z,4.11
2023-04-26T04:07:14.531Z,4.11
2023-04-26T04:09:07.499Z,4.12
2023-04-26T04:11:01.650Z,4.13
2023-04-26T04:12:54.813Z,4.14
2023-04-26T04:14:47.857Z,4.17
2023-04-26T04:16:40.809Z,4.21
2023-04-26T04:18:34.159Z,4.25
2023-04-26T04:20:27.113Z,4.28
2023-04-26T04:22:22.209Z,4.30
2023-04-26T04:24:15.667Z,4.32
2023-04-26T04:26:09.125Z,4.35
2023-04-26T04:28:05.155Z,4.36
2023-04-26T04:29:58.201Z,4.38
2023-04-26T04:31:51.462Z,4.40
2023-04-26T04:33:44.403Z,4.42
2023-04-26T04:35:37.964Z,4.46
2023-04-26T04:37:33.782Z,4.49
2023-04-26T04:39:26.853Z,4.51
2023-04-26T04:41:22.441Z,4.57
2023-04-26T04:43:16.850Z,4.60
2023-04-26T04:45:10.592Z,4.63
2023-04-26T04:47:04.868Z,4.67
2023-04-26T04:48:58.726Z,4.72
2023-04-26T04:50:51.605Z,4.76
2023-04-26T04:52:44.545Z,4.78
2023-04-26T04:54:37.587Z,4.82
2023-04-26T04:56:30.751Z,4.86
2023-04-26T04:58:24.049Z,4.89
2023-04-26T05:00:18.679Z,4.93
2023-04-26T05:02:30.554Z,4.95
2023-04-26T05:04:53.688Z,4.99
2023-04-26T05:06:47.403Z,5.04
2023-04-26T05:08:52.892Z,5.09
2023-04-26T05:11:26.134Z,5.15
2023-04-26T05:13:19.082Z,5.19
2023-04-26T05:15:12.442Z,5.24
2023-04-26T05:17:05.743Z,5.28
2023-04-26T05:18:59.007Z,5.32
2023-04-26T05:20:51.893Z,5.38
2023-04-26T05:22:44.744Z,5.45
2023-04-26T05:24:38.103Z,5.48
2023-04-26T05:26:31.256Z,5.50
2023-04-26T05:28:43.317Z,5.53
2023-04-26T05:30:59.959Z,5.55
2023-04-26T05:33:05.836Z,5.59
2023-04-26T05:35:08.985Z,5.65
2023-04-26T05:37:01.845Z,5.72
2023-04-26T05:38:54.749Z,5.80
2023-04-26T05:40:50.604Z,5.89
2023-04-26T05:42:43.858Z,5.96
2023-04-26T05:44:37.098Z,6.02
2023-04-26T05:46:30.165Z,6.08
2023-04-26T05:48:24.859Z,6.16
2023-04-26T05:50:17.705Z,6.23
2023-04-26T05:52:10.664Z,6.30
2023-04-26T05:54:03.799Z,6.35
2023-04-26T05:55:56.850Z,6.41
2023-04-26T05:57:50.926Z,6.48
2023-04-26T05:59:44.594Z,6.57
2023-04-26T06:01:37.696Z,6.67
2023-04-26T06:03:31.014Z,6.79
2023-04-26T06:05:24.432Z,6.92
2023-04-26T06:07:17.607Z,7.02
2023-04-26T06:09:13.218Z,7.09
2023-04-26T06:11:06.172Z,7.15
2023-04-26T06:12:59.218Z,7.24
2023-04-26T06:14:53.023Z,7.27
2023-04-26T06:16:47.280Z,7.30
2023-04-26T06:18:40.232Z,7.34
2023-04-26T06:20:33.621Z,7.49
2023-04-26T06:22:26.457Z,7.63
2023-04-26T06:24:20.359Z,7.74
2023-04-26T06:26:13.171Z,7.88
2023-04-26T06:28:06.040Z,7.97
2023-04-26T06:29:58.923Z,8.12
2023-04-26T06:31:51.972Z,8.29
2023-04-26T06:33:45.604Z,8.50
2023-04-26T06:35:42.080Z,8.60
2023-04-26T06:37:35.733Z,8.59
2023-04-26T06:39:28.795Z,8.71
2023-04-26T06:41:22.557Z,8.85
2023-04-26T06:43:15.502Z,8.93
2023-04-26T06:45:19.726Z,9.09
2023-04-26T06:47:12.670Z,9.18
2023-04-26T06:49:05.609Z,9.29
2023-04-26T06:50:58.456Z,9.41
2023-04-26T06:52:51.609Z,9.49
2023-04-26T06:54:55.921Z,9.51
2023-04-26T06:56:49.696Z,9.50
2023-04-26T06:59:03.007Z,9.47
2023-04-26T07:00:56.203Z,9.54
2023-04-26T07:02:49.505Z,9.63
2023-04-26T07:04:43.059Z,9.68
2023-04-26T07:06:38.197Z,9.65
2023-04-26T07:08:31.547Z,9.65
2023-04-26T07:10:26.207Z,9.74
2023-04-26T07:12:19.185Z,9.84
2023-04-26T07:14:12.340Z,9.97
2023-04-26T07:16:05.210Z,10.07
2023-04-26T07:17:58.319Z,10.18
2023-04-26T07:19:51.545Z,10.12
2023-04-26T07:21:44.448Z,10.04
2023-04-26T07:23:37.509Z,10.10
2023-04-26T07:25:30.437Z,10.27
2023-04-26T07:27:23.496Z,10.47
2023-04-26T07:29:16.542Z,10.50
2023-04-26T07:31:10.609Z,10.46
2023-04-26T07:33:04.007Z,10.39
2023-04-26T07:34:57.433Z,10.22
2023-04-26T07:36:50.276Z,10.22
2023-04-26T07:38:43.332Z,10.29
2023-04-26T07:40:36.811Z,10.19
2023-04-26T07:42:29.737Z,10.03
2023-04-26T07:44:22.580Z,9.91
2023-04-26T07:46:15.706Z,9.97
2023-04-26T07:48:08.918Z,10.21
2023-04-26T07:50:01.960Z,10.45
2023-04-26T07:51:56.532Z,10.59
2023-04-26T07:53:49.473Z,10.80
2023-04-26T07:55:42.424Z,11.01
2023-04-26T07:57:35.427Z,11.25
2023-04-26T07:59:28.421Z,11.52
2023-04-26T08:01:21.425Z,11.78
2023-04-26T08:03:18.005Z,11.98
2023-04-26T08:05:11.297Z,11.91
2023-04-26T08:07:04.316Z,11.76
2023-04-26T08:08:57.307Z,11.57
2023-04-26T08:10:50.207Z,11.52
2023-04-26T08:12:44.125Z,11.39
2023-04-26T08:14:39.539Z,11.24
2023-04-26T08:16:34.336Z,11.06
2023-04-26T08:18:30.861Z,10.87
2023-04-26T08:20:25.341Z,10.73
2023-04-26T08:22:20.437Z,10.71
2023-04-26T08:24:15.650Z,10.82
2023-04-26T08:26:10.285Z,11.06
2023-04-26T08:28:05.929Z,11.26
2023-04-26T08:30:01.082Z,11.54
2023-04-26T08:31:54.954Z,11.67
2023-04-26T08:33:47.797Z,11.65
2023-04-26T08:35:41.298Z,11.60
2023-04-26T08:37:34.209Z,11.48
2023-04-26T08:39:27.258Z,11.29
2023-04-26T08:41:23.526Z,11.12
2023-04-26T08:43:19.631Z,10.89
2023-04-26T08:45:12.550Z,10.71
2023-04-26T08:47:44.714Z,10.56
2023-04-26T08:49:44.939Z,10.58
2023-04-26T08:51:38.603Z,10.97
2023-04-26T08:53:35.040Z,11.24
2023-04-26T08:55:28.829Z,11.28
2023-04-26T08:57:22.782Z,11.19
2023-04-26T08:59:16.151Z,11.05
2023-04-26T09:01:10.480Z,10.88
2023-04-26T09:03:04.749Z,10.88
2023-04-26T09:04:57.870Z,11.17
2023-04-26T09:06:56.832Z,11.59
2023-04-26T09:08:53.384Z,11.90
2023-04-26T09:10:46.696Z,12.00
2023-04-26T09:12:42.442Z,11.93
2023-04-26T09:14:35.594Z,11.83
2023-04-26T09:16:36.932Z,11.66
2023-04-26T09:18:31.423Z,11.45
2023-04-26T09:20:28.017Z,11.29
2023-04-26T09:22:32.063Z,11.11
2023-04-26T09:24:25.009Z,10.89
2023-04-26T09:26:22.853Z,10.76
2023-04-26T09:28:20.129Z,10.84
2023-04-26T09:30:17.763Z,10.99
2023-04-26T09:32:11.272Z,11.10
2023-04-26T09:34:04.493Z,11.10
2023-04-26T09:36:13.449Z,11.03
2023-04-26T09:38:13.294Z,10.93
2023-04-26T09:40:19.983Z,10.80
2023-04-26T09:42:19.002Z,10.70
2023-04-26T09:44:24.637Z,10.68
2023-04-26T09:46:26.355Z,10.68
2023-04-26T09:48:23.167Z,10.69
2023-04-26T09:50:30.105Z,10.75
2023-04-26T09:52:23.052Z,10.78
2023-04-26T09:54:16.000Z,10.79
2023-04-26T09:56:11.830Z,10.78
2023-04-26T09:58:09.464Z,10.77
2023-04-26T10:00:12.246Z,10.72
2023-04-26T10:02:10.318Z,10.64
2023-04-26T10:04:04.690Z,10.62
2023-04-26T10:05:57.751Z,10.95
2023-04-26T10:07:51.930Z,11.25
2023-04-26T10:09:45.489Z,11.42
2023-04-26T10:11:40.385Z,11.52
2023-04-26T10:13:34.267Z,11.53
2023-04-26T10:15:28.025Z,11.43
2023-04-26T10:17:21.212Z,11.26
2023-04-26T10:19:14.427Z,11.08
2023-04-26T10:21:23.149Z,10.93
2023-04-26T10:23:25.511Z,10.81
2023-04-26T10:25:19.084Z,10.72
2023-04-26T10:27:11.886Z,10.66
2023-04-26T10:29:05.321Z,10.62
2023-04-26T10:31:01.798Z,10.59
2023-04-26T10:32:57.450Z,10.57
2023-04-26T10:35:12.364Z,10.50
2023-04-26T10:37:18.465Z,10.39
2023-04-26T10:39:23.173Z,10.28
2023-04-26T10:41:33.109Z,10.18
2023-04-26T10:43:30.083Z,10.06
2023-04-26T10:45:30.354Z,10.00
2023-04-26T10:47:29.612Z,10.02
2023-04-26T10:49:26.667Z,10.08
2023-04-26T10:51:19.693Z,10.15
2023-04-26T10:53:13.658Z,10.23
2023-04-26T10:55:08.118Z,10.35
2023-04-26T10:57:01.383Z,10.51
2023-04-26T10:59:18.035Z,10.69
2023-04-26T11:01:21.571Z,10.95
2023-04-26T11:03:15.558Z,11.17
2023-04-26T11:05:09.199Z,11.39
2023-04-26T11:07:03.707Z,11.69
2023-04-26T11:09:00.745Z,12.01
2023-04-26T11:11:03.341Z,12.32
2023-04-26T11:13:01.904Z,12.54
2023-04-26T11:14:56.081Z,12.74
2023-04-26T11:16:48.926Z,12.77
2023-04-26T11:18:44.093Z,12.69
2023-04-26T11:20:36.972Z,12.53
2023-04-26T11:22:30.049Z,12.38
2023-04-26T11:24:27.689Z,12.28
2023-04-26T11:26:20.509Z,12.17
2023-04-26T11:28:13.386Z,12.00
2023-04-26T11:30:07.141Z,11.89
2023-04-26T11:32:00.036Z,11.84
2023-04-26T11:33:52.942Z,11.79
2023-04-26T11:35:52.398Z,11.72
2023-04-26T11:37:45.953Z,11.68
2023-04-26T11:39:38.730Z,11.70
2023-04-26T11:41:32.203Z,11.74
2023-04-26T11:43:39.521Z,11.80
2023-04-26T11:45:34.203Z,11.87
2023-04-26T11:47:30.837Z,11.89
2023-04-26T11:49:24.375Z,11.82
2023-04-26T11:51:17.630Z,11.72
2023-04-26T11:53:10.600Z,11.59
2023-04-26T11:55:07.461Z,11.49
2023-04-26T11:57:06.023Z,11.41
2023-04-26T11:59:00.607Z,11.43
2023-04-26T12:01:02.053Z,11.47
2023-04-26T12:03:06.576Z,11.58
2023-04-26T12:05:00.189Z,11.74
2023-04-26T12:06:53.369Z,11.89
2023-04-26T12:08:53.814Z,12.02
2023-04-26T12:10:47.815Z,12.07
2023-04-26T12:12:45.750Z,12.06
2023-04-26T12:14:42.293Z,12.07
2023-04-26T12:16:44.436Z,12.05
2023-04-26T12:18:37.784Z,12.03
2023-04-26T12:20:34.877Z,12.03
2023-04-26T12:22:28.595Z,12.02
2023-04-26T12:24:30.806Z,12.01
2023-04-26T12:26:44.459Z,12.09
2023-04-26T12:28:37.858Z,12.13
2023-04-26T12:31:27.572Z,12.09
2023-04-26T12:33:31.188Z,12.15
2023-04-26T12:35:25.326Z,12.22
2023-04-26T12:37:18.358Z,12.26
2023-04-26T12:39:14.533Z,12.27
2023-04-26T12:41:07.939Z,12.26
2023-04-26T12:43:01.205Z,12.22
2023-04-26T12:44:54.042Z,12.17
2023-04-26T12:46:47.106Z,12.12
2023-04-26T12:48:43.191Z,12.12
2023-04-26T12:50:57.674Z,12.16
2023-04-26T12:53:07.821Z,12.27
2023-04-26T12:55:00.660Z,12.44
2023-04-26T12:56:53.845Z,12.61
2023-04-26T12:58:47.173Z,12.78
2023-04-26T13:00:39.971Z,12.83
2023-04-26T13:02:34.327Z,12.82
2023-04-26T13:04:27.712Z,12.81
2023-04-26T13:06:21.133Z,12.77
2023-04-26T13:08:14.547Z,12.74
2023-04-26T13:10:12.725Z,12.70
2023-04-26T13:12:06.220Z,12.64
2023-04-26T13:13:59.784Z,12.56
2023-04-26T13:15:53.694Z,12.46
2023-04-26T13:17:47.332Z,12.40
2023-04-26T13:19:40.257Z,12.34
2023-04-26T13:21:33.284Z,12.32
2023-04-26T13:23:26.155Z,12.31
2023-04-26T13:25:19.404Z,12.34
2023-04-26T13:27:13.305Z,12.35
2023-04-26T13:29:06.304Z,12.35
2023-04-26T13:30:59.710Z,12.31
2023-04-26T13:32:52.782Z,12.20
2023-04-26T13:34:45.886Z,12.18
2023-04-26T13:36:39.591Z,12.15
2023-04-26T13:38:33.017Z,12.15
2023-04-26T13:40:26.062Z,12.20
2023-04-26T13:42:19.111Z,12.23
2023-04-26T13:44:14.331Z,12.21
2023-04-26T13:46:08.118Z,12.11
2023-04-26T13:48:01.163Z,12.01
2023-04-26T13:49:54.620Z,11.92
2023-04-26T13:51:47.532Z,11.86
2023-04-26T13:53:40.898Z,11.81
2023-04-26T13:55:33.843Z,11.76
2023-04-26T13:57:26.658Z,11.71
2023-04-26T13:59:20.674Z,11.66
2023-04-26T14:01:14.268Z,11.63
2023-04-26T14:03:15.601Z,11.61
2023-04-26T14:05:10.341Z,11.55
2023-04-26T14:07:05.243Z,11.54
2023-04-26T14:08:58.616Z,11.53
2023-04-26T14:10:51.670Z,11.51
2023-04-26T14:12:44.611Z,11.48
2023-04-26T14:14:37.564Z,11.45
2023-04-26T14:16:30.576Z,11.50
2023-04-26T14:18:23.649Z,11.56
2023-04-26T14:20:16.615Z,11.57
2023-04-26T14:22:13.169Z,11.54
2023-04-26T14:24:06.602Z,11.51
2023-04-26T14:25:59.603Z,11.49
2023-04-26T14:27:54.953Z,11.51
2023-04-26T14:29:48.027Z,11.53
2023-04-26T14:31:40.974Z,11.49
2023-04-26T14:33:34.412Z,11.41
2023-04-26T14:35:27.260Z,11.32
2023-04-26T14:37:22.938Z,11.25
2023-04-26T14:39:16.340Z,11.14
2023-04-26T14:41:13.685Z,11.05
2023-04-26T14:43:06.556Z,10.96
2023-04-26T14:44:59.749Z,10.92
2023-04-26T14:46:53.551Z,10.91
2023-04-26T14:48:46.910Z,10.91
2023-04-26T14:50:40.219Z,10.90
2023-04-26T14:52:36.512Z,10.87
2023-04-26T14:54:29.360Z,10.91
2023-04-26T14:56:23.925Z,10.95
2023-04-26T14:58:19.395Z,10.97
2023-04-26T15:00:16.982Z,10.99
2023-04-26T15:02:10.026Z,11.02
2023-04-26T15:04:03.747Z,11.05
2023-04-26T15:05:57.179Z,11.09
2023-04-26T15:07:50.996Z,11.12
2023-04-26T15:09:43.875Z,11.18
2023-04-26T15:11:53.753Z,11.23
2023-04-26T15:13:46.978Z,11.26
2023-04-26T15:15:39.924Z,11.28
2023-04-26T15:17:34.625Z,11.31
2023-04-26T15:19:28.621Z,11.35
2023-04-26T15:21:23.405Z,11.40
2023-04-26T15:23:16.927Z,11.45
2023-04-26T15:25:11.464Z,11.48
2023-04-26T15:27:05.516Z,11.52
2023-04-26T15:28:58.659Z,11.56
2023-04-26T15:30:57.079Z,11.57
2023-04-26T15:32:53.073Z,11.55
2023-04-26T15:34:46.000Z,11.51
2023-04-26T15:36:38.853Z,11.47
2023-04-26T15:38:34.049Z,11.41
2023-04-26T15:40:28.319Z,11.31
2023-04-26T15:42:21.886Z,11.20
2023-04-26T15:44:14.988Z,11.08
2023-04-26T15:46:08.045Z,11.00
2023-04-26T15:48:01.340Z,10.93
2023-04-26T15:49:55.210Z,10.91
2023-04-26T15:51:48.163Z,10.90
2023-04-26T15:53:43.851Z,10.91
2023-04-26T15:55:37.234Z,10.91
2023-04-26T15:57:30.386Z,10.88
2023-04-26T15:59:23.334Z,10.84
2023-04-26T16:01:16.648Z,10.78
2023-04-26T16:03:10.115Z,10.71
2023-04-26T16:05:04.663Z,10.67
2023-04-26T16:06:57.704Z,10.65
2023-04-26T16:08:50.851Z,10.63
2023-04-26T16:10:43.789Z,10.62
2023-04-26T16:12:41.853Z,10.62
2023-04-26T16:14:34.631Z,10.62
2023-04-26T16:16:27.678Z,10.64
2023-04-26T16:18:23.466Z,10.64
2023-04-26T16:20:16.513Z,10.63
2023-04-26T16:22:09.461Z,10.64
2023-04-26T16:24:02.545Z,10.62
2023-04-26T16:25:55.714Z,10.61
2023-04-26T16:27:48.823Z,10.56
2023-04-26T16:29:41.687Z,10.48
2023-04-26T16:31:34.942Z,10.42
2023-04-26T16:33:28.361Z,10.35
2023-04-26T16:35:21.644Z,10.28
2023-04-26T16:37:14.939Z,10.23
2023-04-26T16:39:07.994Z,10.20
2023-04-26T16:41:01.894Z,10.20
2023-04-26T16:42:54.981Z,10.21
2023-04-26T16:44:47.814Z,10.23
2023-04-26T16:46:41.920Z,10.24
2023-04-26T16:48:36.731Z,10.25
2023-04-26T16:50:29.553Z,10.27
2023-04-26T16:52:22.334Z,10.28
2023-04-26T16:54:15.125Z,10.28
2023-04-26T16:56:08.382Z,10.29
2023-04-26T16:58:01.215Z,10.29
2023-04-26T16:59:54.271Z,10.28
2023-04-26T17:01:47.921Z,10.26
2023-04-26T17:03:43.136Z,10.23
2023-04-26T17:05:41.199Z,10.19
2023-04-26T17:07:34.316Z,10.17
2023-04-26T17:09:27.811Z,10.16
2023-04-26T17:11:20.615Z,10.15
2023-04-26T17:13:13.917Z,10.14
2023-04-26T17:15:08.692Z,10.12
2023-04-26T17:17:01.549Z,10.09
2023-04-26T17:18:54.386Z,10.07
2023-04-26T17:20:52.878Z,10.02
2023-04-26T17:22:45.816Z,9.96
2023-04-26T17:24:38.761Z,9.90
2023-04-26T17:26:31.593Z,9.85
2023-04-26T17:28:24.456Z,9.82
2023-04-26T17:30:17.411Z,9.76
2023-04-26T17:32:10.484Z,9.71
2023-04-26T17:34:04.878Z,9.66
2023-04-26T17:35:58.097Z,9.60
2023-04-26T17:37:51.249Z,9.53
2023-04-26T17:39:44.194Z,9.49
2023-04-26T17:41:38.497Z,9.43
2023-04-26T17:43:31.373Z,9.39
2023-04-26T17:45:24.595Z,9.36
2023-04-26T17:47:17.831Z,9.34
2023-04-26T17:49:10.979Z,9.32
2023-04-26T17:51:03.965Z,9.32
2023-04-26T17:52:57.371Z,9.30
2023-04-26T17:54:50.238Z,9.26
2023-04-26T17:56:46.469Z,9.24
2023-04-26T17:58:39.323Z,9.22
2023-04-26T18:00:32.275Z,9.21
2023-04-26T18:02:25.474Z,9.17
2023-04-26T18:04:18.937Z,9.13
2023-04-26T18:06:12.433Z,9.10
2023-04-26T18:08:05.415Z,9.06
2023-04-26T18:09:58.548Z,9.01
2023-04-26T18:11:51.479Z,8.98
2023-04-26T18:13:44.327Z,8.93
2023-04-26T18:15:37.170Z,8.90
2023-04-26T18:17:30.155Z,8.86
2023-04-26T18:19:23.473Z,8.81
2023-04-26T18:21:16.733Z,8.76
2023-04-26T18:23:10.092Z,8.73
2023-04-26T18:25:04.014Z,8.71
2023-04-26T18:26:56.906Z,8.67
2023-04-26T18:28:49.756Z,8.66
2023-04-26T18:30:42.718Z,8.64
2023-04-26T18:32:35.713Z,8.62
2023-04-26T18:34:28.717Z,8.60
2023-04-26T18:36:23.190Z,8.57
2023-04-26T18:38:19.512Z,8.51
2023-04-26T18:40:13.074Z,8.48
2023-04-26T18:42:06.958Z,8.44
2023-04-26T18:43:59.888Z,8.41
2023-04-26T18:45:53.030Z,8.37
2023-04-26T18:47:46.306Z,8.34
2023-04-26T18:49:39.169Z,8.29
2023-04-26T18:51:32.916Z,8.27
2023-04-26T18:53:25.864Z,8.24
2023-04-26T18:55:18.963Z,8.20
2023-04-26T18:57:11.959Z,8.18
2023-04-26T18:59:04.908Z,8.17
2023-04-26T19:00:57.855Z,8.15
2023-04-26T19:02:51.311Z,8.10
2023-04-26T19:04:45.509Z,8.06
2023-04-26T19:06:42.645Z,8.03
2023-04-26T19:08:36.206Z,8.00
2023-04-26T19:10:29.051Z,7.98
2023-04-26T19:12:22.104Z,7.96
2023-04-26T19:14:14.948Z,7.93
2023-04-26T19:16:09.239Z,7.90
2023-04-26T19:18:02.816Z,7.85
2023-04-26T19:19:55.845Z,7.81
2023-04-26T19:21:48.608Z,7.79
2023-04-26T19:23:41.539Z,7.77
2023-04-26T19:25:34.889Z,7.74
2023-04-26T19:27:27.842Z,7.71
2023-04-26T19:29:21.092Z,7.67
2023-04-26T19:31:14.060Z,7.63
2023-04-26T19:33:07.474Z,7.59
2023-04-26T19:35:00.736Z,7.55
2023-04-26T19:36:53.910Z,7.53
2023-04-26T19:38:48.613Z,7.50
2023-04-26T19:40:42.763Z,7.48
2023-04-26T19:42:35.828Z,7.45
2023-04-26T19:44:29.112Z,7.42
2023-04-26T19:46:22.144Z,7.38
2023-04-26T19:48:15.093Z,7.35
2023-04-26T19:50:08.541Z,7.32
2023-04-26T19:52:03.236Z,7.29
2023-04-26T19:53:56.951Z,7.26
2023-04-26T19:55:51.640Z,7.22
2023-04-26T19:57:46.275Z,7.18
2023-04-26T19:59:39.528Z,7.15
2023-04-26T20:01:32.473Z,7.11
2023-04-26T20:03:27.304Z,7.07
2023-04-26T20:05:20.937Z,7.02
2023-04-26T20:07:14.665Z,6.99
2023-04-26T20:09:09.595Z,6.96
2023-04-26T20:11:04.811Z,6.93
2023-04-26T20:12:58.853Z,6.90
2023-04-26T20:14:51.818Z,6.87
2023-04-26T20:16:44.722Z,6.84
2023-04-26T20:18:38.335Z,6.82
2023-04-26T20:20:32.866Z,6.79
2023-04-26T20:22:26.681Z,6.77
2023-04-26T20:24:19.629Z,6.75
2023-04-26T20:26:17.037Z,6.74
2023-04-26T20:28:14.541Z,6.71
2023-04-26T20:30:15.796Z,6.66
2023-04-26T20:32:09.266Z,6.63
2023-04-26T20:34:03.107Z,6.59
2023-04-26T20:35:56.259Z,6.56
2023-04-26T20:37:49.105Z,6.53
2023-04-26T20:39:42.873Z,6.47
2023-04-26T20:41:36.546Z,6.44
2023-04-26T20:43:29.485Z,6.41
2023-04-26T20:45:22.329Z,6.37
2023-04-26T20:47:15.809Z,6.35
2023-04-26T20:49:09.315Z,6.34
2023-04-26T20:51:03.314Z,6.32
2023-04-26T20:52:56.380Z,6.29
2023-04-26T20:54:49.230Z,6.27
2023-04-26T20:56:41.998Z,6.23
2023-04-26T20:58:35.021Z,6.20
2023-04-26T21:00:27.966Z,6.16
2023-04-26T21:02:21.405Z,6.13
2023-04-26T21:04:14.694Z,6.10
2023-04-26T21:06:07.697Z,6.08
2023-04-26T21:08:00.701Z,6.05
2023-04-26T21:09:53.706Z,6.02
2023-04-26T21:11:46.577Z,5.98
2023-04-26T21:13:39.527Z,5.96
2023-04-26T21:15:33.538Z,5.93
2023-04-26T21:17:26.467Z,5.91
2023-04-26T21:19:20.111Z,5.88
2023-04-26T21:21:12.962Z,5.83
2023-04-26T21:23:05.757Z,5.80
2023-04-26T21:24:58.583Z,5.76
2023-04-26T21:26:51.496Z,5.73
2023-04-26T21:28:44.339Z,5.71
2023-04-26T21:30:37.185Z,5.68
2023-04-26T21:32:30.040Z,5.66
2023-04-26T21:34:22.977Z,5.64
2023-04-26T21:36:16.438Z,5.62
2023-04-26T21:38:09.286Z,5.61
2023-04-26T21:40:02.131Z,5.59
2023-04-26T21:41:54.977Z,5.57
2023-04-26T21:43:47.826Z,5.55
2023-04-26T21:45:41.589Z,5.54
2023-04-26T21:47:34.527Z,5.52
2023-04-26T21:49:27.398Z,5.51
2023-04-26T21:51:20.340Z,5.47
2023-04-26T21:53:13.094Z,5.46
2023-04-26T21:55:06.840Z,5.44
2023-04-26T21:56:59.692Z,5.43
2023-04-26T21:58:52.707Z,5.40
2023-04-26T22:00:45.831Z,5.39
2023-04-26T22:02:39.546Z,5.38
2023-04-26T22:04:32.917Z,5.36
2023-04-26T22:06:25.762Z,5.33
2023-04-26T22:08:18.619Z,5.33
2023-04-26T22:10:11.455Z,5.32
2023-04-26T22:12:04.707Z,5.31
2023-04-26T22:13:57.554Z,5.30
2023-04-26T22:15:51.422Z,5.29
2023-04-26T22:17:44.306Z,5.27
2023-04-26T22:19:37.216Z,5.25
2023-04-26T22:21:30.165Z,5.24
2023-04-26T22:23:23.010Z,5.22
2023-04-26T22:25:16.057Z,5.19
2023-04-26T22:27:09.016Z,5.17
2023-04-26T22:29:02.420Z,5.15
2023-04-26T22:30:56.375Z,5.13
2023-04-26T22:32:53.619Z,5.10
2023-04-26T22:34:46.751Z,5.07
2023-04-26T22:36:39.797Z,5.04
2023-04-26T22:38:32.642Z,5.02
2023-04-26T22:40:25.686Z,5.00
2023-04-26T22:42:18.537Z,4.97
2023-04-26T22:44:11.495Z,4.94
2023-04-26T22:46:04.472Z,4.92
2023-04-26T22:47:57.433Z,4.87
2023-04-26T22:49:50.535Z,4.85
2023-04-26T22:51:48.221Z,4.82
2023-04-26T22:53:50.660Z,4.76
2023-04-26T22:55:44.023Z,4.73
2023-04-26T22:57:37.587Z,4.71
2023-04-26T22:59:34.332Z,4.66
2023-04-26T23:01:27.205Z,4.60
2023-04-26T23:03:20.372Z,4.56
2023-04-26T23:05:13.366Z,4.51
2023-04-26T23:07:06.213Z,4.48
2023-04-26T23:08:59.064Z,4.46
2023-04-26T23:10:52.111Z,4.45
2023-04-26T23:12:44.955Z,4.41
2023-04-26T23:14:37.922Z,4.38
2023-04-26T23:16:30.883Z,4.36
2023-04-26T23:18:26.661Z,4.33
2023-04-26T23:20:19.646Z,4.31
2023-04-26T23:22:12.561Z,4.31
2023-04-26T23:24:06.143Z,4.30
2023-04-26T23:25:58.971Z,4.30
2023-04-26T23:27:51.921Z,4.29
2023-04-26T23:29:44.767Z,4.28
2023-04-26T23:31:37.639Z,4.26
2023-04-26T23:33:30.561Z,4.23
2023-04-26T23:35:23.407Z,4.23
2023-04-26T23:37:16.351Z,4.24
2023-04-26T23:39:09.301Z,4.25
2023-04-26T23:41:02.142Z,4.26
2023-04-26T23:42:54.991Z,4.25
2023-04-26T23:44:47.840Z,4.25
2023-04-26T23:46:40.681Z,4.26
2023-04-26T23:48:33.734Z,4.26
2023-04-26T23:50:26.578Z,4.27
2023-04-26T23:52:19.535Z,4.26
2023-04-26T23:54:12.991Z,4.27
2023-04-26T23:56:07.348Z,4.27
2023-04-26T23:58:00.630Z,4.28
2023-04-26T23:59:53.475Z,4.29
